Time;durP1;ratioP1;P1;durP2;ratioP2;P2;SDS_P1;SDS_P2;PMS_P1;PMS_P2;Temp;Humidity;BMP_temperature;BMP_pressure;BME280_temperature;BME280_humidity;BME280_pressure;Samples;Min_cycle;Max_cycle;Signal;HPM_P1;HPM_P2
2022/06/11 00:00:24;;;;;;;;;;;;;;;;;;5016125;28;19921;-30
2022/06/11 00:02:50;;;;;;;;;;;;;;;;;;5015387;28;19932;-30
2022/06/11 00:05:16;;;;;;;;;;;;;;;;;;5015755;28;19909;-30
2022/06/11 00:07:41;;;;;;;;;;;;;;;;;;5015430;28;19924;-30
2022/06/11 00:10:07;;;;;;;;;;;;;;;;;;5015658;28;19909;-30
2022/06/11 00:12:33;;;;;;;;;;;;;;;;;;5015581;28;19913;-30
2022/06/11 00:14:59;;;;;;;;;;;;;;;;;;5015399;28;20347;-30
2022/06/11 00:17:25;;;;;;;;;;;;;;;;;;5015302;28;19925;-30
2022/06/11 00:19:52;;;;;;;;;;;;;;;;;;5015200;28;20051;-30
2022/06/11 00:22:18;;;;;;;;;;;;;;;;;;5015212;28;19924;-30
2022/06/11 00:24:44;;;;;;;;;;;;;;;;;;5015278;28;20000;-30
2022/06/11 00:27:10;;;;;;;;;;;;;;;;;;5016059;28;19964;-30
2022/06/11 00:29:36;;;;;;;;;;;;;;;;;;5015472;28;19914;-30
2022/06/11 00:32:02;;;;;;;;;;;;;;;;;;5017934;28;20384;-29
2022/06/11 00:34:28;;;;;;;;;;;;;;;;;;5019286;28;19920;-30
2022/06/11 00:36:54;;;;;;;;;;;;;;;;;;5019203;28;20003;-29
2022/06/11 00:39:20;;;;;;;;;;;;;;;;;;5019081;28;19953;-30
2022/06/11 00:41:46;;;;;;;;;;;;;;;;;;5019041;28;19914;-30
2022/06/11 00:44:12;;;;;;;;;;;;;;;;;;5019073;28;19928;-29
2022/06/11 00:46:38;;;;;;;;;;;;;;;;;;5019006;28;19996;-30
2022/06/11 00:49:04;;;;;;;;;;;;;;;;;;5019558;28;19913;-30
2022/06/11 00:51:31;;;;;;;;;;;;;;;;;;5018945;28;19923;-30
2022/06/11 00:53:57;;;;;;;;;;;;;;;;;;5018876;28;19932;-29
2022/06/11 00:56:23;;;;;;;;;;;;;;;;;;5019115;28;19921;-30
2022/06/11 00:58:49;;;;;;;;;;;;;;;;;;5018991;28;20221;-29
2022/06/11 01:01:15;;;;;;;;;;;;;;;;;;5019113;28;19963;-29
2022/06/11 01:03:41;;;;;;;;;;;;;;;;;;5018497;28;20016;-30
2022/06/11 01:06:07;;;;;;;;;;;;;;;;;;5019489;28;19973;-30
2022/06/11 01:08:33;;;;;;;;;;;;;;;;;;5019443;28;19921;-30
2022/06/11 01:10:59;;;;;;;;;;;;;;;;;;5018611;28;20028;-30
2022/06/11 01:13:31;;;;;;;;;;;;;;;;;;5018729;28;19913;-30
2022/06/11 01:15:57;;;;;;;;;;;;;;;;;;5018500;28;19920;-29
2022/06/11 01:18:23;;;;;;;;;;;;;;;;;;5018650;28;19913;-30
2022/06/11 01:20:49;;;;;;;;;;;;;;;;;;5018741;28;19914;-30
2022/06/11 01:23:15;;;;;;;;;;;;;;;;;;5018296;28;20272;-30
2022/06/11 01:25:40;;;;;;;;;;;;;;;;;;5018576;28;20019;-30
2022/06/11 01:28:06;;;;;;;;;;;;;;;;;;5019358;28;19913;-30
2022/06/11 01:30:32;;;;;;;;;;;;;;;;;;5018470;28;19971;-30
2022/06/11 01:32:59;;;;;;;;;;;;;;;;;;5018105;28;19972;-30
2022/06/11 01:35:25;;;;;;;;;;;;;;;;;;5018167;28;19913;-30
2022/06/11 01:37:51;;;;;;;;;;;;;;;;;;5018373;28;20244;-30
2022/06/11 01:40:17;;;;;;;;;;;;;;;;;;5018303;28;20332;-30
2022/06/11 01:42:43;;;;;;;;;;;;;;;;;;5018089;28;19917;-30
2022/06/11 01:45:09;;;;;;;;;;;;;;;;;;5018013;28;19909;-30
2022/06/11 01:47:35;;;;;;;;;;;;;;;;;;5018180;28;19913;-30
2022/06/11 01:50:01;;;;;;;;;;;;;;;;;;5018143;28;20249;-30
2022/06/11 01:52:28;;;;;;;;;;;;;;;;;;5018024;28;19914;-30
2022/06/11 01:54:54;;;;;;;;;;;;;;;;;;5018355;28;19910;-30
2022/06/11 01:57:20;;;;;;;;;;;;;;;;;;5017702;28;20051;-29
2022/06/11 01:59:46;;;;;;;;;;;;;;;;;;5017670;28;20004;-30
2022/06/11 02:02:12;;;;;;;;;;;;;;;;;;5018046;28;19914;-30
2022/06/11 02:04:38;;;;;;;;;;;;;;;;;;5017412;28;19932;-30
2022/06/11 02:07:04;;;;;;;;;;;;;;;;;;5017531;28;19920;-30
2022/06/11 02:09:30;;;;;;;;;;;;;;;;;;5018003;28;19909;-30
2022/06/11 02:11:56;;;;;;;;;;;;;;;;;;5017402;28;19921;-30
2022/06/11 02:14:23;;;;;;;;;;;;;;;;;;5017690;28;19925;-29
2022/06/11 02:16:49;;;;;;;;;;;;;;;;;;5017700;28;20288;-30
2022/06/11 02:19:14;;;;;;;;;;;;;;;;;;5017238;28;20042;-30
2022/06/11 02:21:41;;;;;;;;;;;;;;;;;;5017571;28;19936;-30
2022/06/11 02:24:07;;;;;;;;;;;;;;;;;;5016180;28;20407;-30
2022/06/11 02:26:33;;;;;;;;;;;;;;;;;;5017521;28;20257;-30
2022/06/11 02:28:59;;;;;;;;;;;;;;;;;;5017399;28;19914;-30
2022/06/11 02:31:25;;;;;;;;;;;;;;;;;;5017323;28;19979;-30
2022/06/11 02:33:51;;;;;;;;;;;;;;;;;;5017509;28;20269;-30
2022/06/11 02:36:17;;;;;;;;;;;;;;;;;;5017016;28;19909;-30
2022/06/11 02:38:43;;;;;;;;;;;;;;;;;;5016887;28;19925;-30
2022/06/11 02:41:09;;;;;;;;;;;;;;;;;;5017206;28;20316;-30
2022/06/11 02:43:35;;;;;;;;;;;;;;;;;;5017032;28;19914;-29
2022/06/11 02:46:43;;;;;;;;;;;;;;;;;;5016800;28;19937;-29
2022/06/11 02:48:51;;;;;;;;;;;;;;;;;;5011317;28;19967;-30
2022/06/11 02:51:17;;;;;;;;;;;;;;;;;;5016758;28;20005;-30
2022/06/11 02:53:43;;;;;;;;;;;;;;;;;;5016341;28;19953;-30
2022/06/11 02:56:09;;;;;;;;;;;;;;;;;;5016617;28;19956;-30
2022/06/11 02:58:35;;;;;;;;;;;;;;;;;;5016588;28;19963;-30
2022/06/11 03:01:01;;;;;;;;;;;;;;;;;;5016612;28;20365;-30
2022/06/11 03:03:27;;;;;;;;;;;;;;;;;;5016396;28;19960;-30
2022/06/11 03:05:53;;;;;;;;;;;;;;;;;;5016755;28;20004;-30
2022/06/11 03:08:19;;;;;;;;;;;;;;;;;;5016664;28;19964;-29
2022/06/11 03:10:45;;;;;;;;;;;;;;;;;;5016706;28;19949;-30
2022/06/11 03:13:11;;;;;;;;;;;;;;;;;;5016513;28;19928;-29
2022/06/11 03:15:37;;;;;;;;;;;;;;;;;;5016367;28;20361;-30
2022/06/11 03:18:03;;;;;;;;;;;;;;;;;;5016148;28;20237;-30
2022/06/11 03:20:29;;;;;;;;;;;;;;;;;;5016200;28;19910;-30
2022/06/11 03:22:55;;;;;;;;;;;;;;;;;;5016695;28;20010;-30
2022/06/11 03:25:21;;;;;;;;;;;;;;;;;;5016377;28;20345;-29
2022/06/11 03:27:47;;;;;;;;;;;;;;;;;;5016321;28;19923;-30
2022/06/11 03:30:14;;;;;;;;;;;;;;;;;;5016315;28;19920;-30
2022/06/11 03:32:40;;;;;;;;;;;;;;;;;;5015873;28;19981;-29
2022/06/11 03:35:06;;;;;;;;;;;;;;;;;;5016232;28;20008;-30
2022/06/11 03:37:32;;;;;;;;;;;;;;;;;;5016170;28;19921;-29
2022/06/11 03:39:58;;;;;;;;;;;;;;;;;;5016054;28;19913;-30
2022/06/11 03:42:24;;;;;;;;;;;;;;;;;;5015687;28;19979;-30
2022/06/11 03:44:50;;;;;;;;;;;;;;;;;;5015724;28;20355;-30
2022/06/11 03:47:16;;;;;;;;;;;;;;;;;;5016206;28;20004;-29
2022/06/11 03:49:42;;;;;;;;;;;;;;;;;;5015702;28;20423;-30
2022/06/11 03:52:10;;;;;;;;;;;;;;;;;;5015625;28;20056;-30
2022/06/11 03:54:36;;;;;;;;;;;;;;;;;;5015890;28;19952;-30
2022/06/11 03:57:02;;;;;;;;;;;;;;;;;;5015667;28;19957;-30
2022/06/11 03:59:28;;;;;;;;;;;;;;;;;;5015715;28;19917;-30
2022/06/11 04:01:54;;;;;;;;;;;;;;;;;;5015454;28;20277;-30
2022/06/11 04:04:20;;;;;;;;;;;;;;;;;;5015422;28;19994;-30
2022/06/11 04:06:46;;;;;;;;;;;;;;;;;;5014641;28;19996;-30
2022/06/11 04:09:12;;;;;;;;;;;;;;;;;;5015515;28;19913;-30
2022/06/11 04:11:38;;;;;;;;;;;;;;;;;;5015488;28;19913;-29
2022/06/11 04:14:04;;;;;;;;;;;;;;;;;;5015135;28;19932;-29
2022/06/11 04:16:30;;;;;;;;;;;;;;;;;;5015226;28;19913;-30
2022/06/11 04:18:56;;;;;;;;;;;;;;;;;;5015060;28;20297;-30
2022/06/11 04:21:21;;;;;;;;;;;;;;;;;;5015473;28;20090;-30
2022/06/11 04:23:48;;;;;;;;;;;;;;;;;;5015371;28;19910;-30
2022/06/11 04:26:13;;;;;;;;;;;;;;;;;;5015450;28;19914;-30
2022/06/11 04:28:40;;;;;;;;;;;;;;;;;;5015086;28;19987;-30
2022/06/11 04:31:06;;;;;;;;;;;;;;;;;;5015215;28;19936;-30
2022/06/11 04:33:32;;;;;;;;;;;;;;;;;;5014690;28;20008;-30
2022/06/11 04:35:58;;;;;;;;;;;;;;;;;;5014868;28;19914;-30
2022/06/11 04:38:24;;;;;;;;;;;;;;;;;;5014630;28;20324;-30
2022/06/11 04:40:50;;;;;;;;;;;;;;;;;;5014839;28;19995;-30
2022/06/11 04:43:16;;;;;;;;;;;;;;;;;;5015162;28;20004;-30
2022/06/11 04:45:42;;;;;;;;;;;;;;;;;;5015131;28;20079;-30
2022/06/11 04:48:08;;;;;;;;;;;;;;;;;;5014825;28;19949;-30
2022/06/11 04:50:34;;;;;;;;;;;;;;;;;;5014823;28;20008;-31
2022/06/11 04:53:00;;;;;;;;;;;;;;;;;;5014690;28;19924;-31
2022/06/11 04:55:26;;;;;;;;;;;;;;;;;;5014755;28;19979;-30
2022/06/11 04:57:52;;;;;;;;;;;;;;;;;;5015295;28;19929;-30
2022/06/11 05:00:18;;;;;;;;;;;;;;;;;;5015244;28;19930;-30
2022/06/11 05:02:44;;;;;;;;;;;;;;;;;;5014569;28;20005;-30
2022/06/11 05:05:10;;;;;;;;;;;;;;;;;;5015048;28;19956;-30
2022/06/11 05:07:36;;;;;;;;;;;;;;;;;;5014982;28;19913;-33
2022/06/11 05:10:02;;;;;;;;;;;;;;;;;;5014655;28;19918;-30
2022/06/11 05:12:28;;;;;;;;;;;;;;;;;;5015080;28;19968;-30
2022/06/11 05:14:54;;;;;;;;;;;;;;;;;;5014449;28;19914;-30
2022/06/11 05:17:20;;;;;;;;;;;;;;;;;;5016079;28;20341;-31
2022/06/11 05:19:46;;;;;;;;;;;;;;;;;;5018418;28;19928;-30
2022/06/11 05:22:12;;;;;;;;;;;;;;;;;;5018105;28;19913;-30
2022/06/11 05:24:38;;;;;;;;;;;;;;;;;;5018148;28;19996;-30
2022/06/11 05:27:06;;;;;;;;;;;;;;;;;;5018145;28;19914;-31
2022/06/11 05:29:32;;;;;;;;;;;;;;;;;;5018138;28;20256;-31
2022/06/11 05:31:57;;;;;;;;;;;;;;;;;;5017957;28;20345;-30
2022/06/11 05:34:24;;;;;;;;;;;;;;;;;;5017964;28;19916;-31
2022/06/11 05:36:49;;;;;;;;;;;;;;;;;;5018160;28;19914;-30
2022/06/11 05:39:16;;;;;;;;;;;;;;;;;;5017761;28;19914;-30
2022/06/11 05:41:42;;;;;;;;;;;;;;;;;;5017779;28;19925;-31
2022/06/11 05:44:08;;;;;;;;;;;;;;;;;;5017811;28;20024;-31
2022/06/11 05:46:34;;;;;;;;;;;;;;;;;;5017815;28;19914;-30
2022/06/11 05:49:00;;;;;;;;;;;;;;;;;;5017731;28;20276;-30
2022/06/11 05:51:26;;;;;;;;;;;;;;;;;;5018336;28;20375;-30
2022/06/11 05:53:52;;;;;;;;;;;;;;;;;;5018566;28;19928;-30
2022/06/11 05:56:18;;;;;;;;;;;;;;;;;;5017714;28;19910;-30
2022/06/11 05:58:44;;;;;;;;;;;;;;;;;;5017774;28;19928;-30
2022/06/11 06:01:10;;;;;;;;;;;;;;;;;;5017747;28;19920;-30
2022/06/11 06:03:36;;;;;;;;;;;;;;;;;;5017115;28;20276;-30
2022/06/11 06:06:02;;;;;;;;;;;;;;;;;;5017529;28;19924;-30
2022/06/11 06:08:28;;;;;;;;;;;;;;;;;;5017840;28;19914;-30
2022/06/11 06:10:54;;;;;;;;;;;;;;;;;;5017270;28;20369;-30
2022/06/11 06:16:05;;;;;;;;;;;;;;;;;;5017239;28;20012;-30
2022/06/11 06:18:31;;;;;;;;;;;;;;;;;;5017323;28;19925;-31
2022/06/11 06:20:57;;;;;;;;;;;;;;;;;;5016177;28;19909;-30
2022/06/11 06:23:23;;;;;;;;;;;;;;;;;;5017048;28;20344;-31
2022/06/11 06:25:49;;;;;;;;;;;;;;;;;;5017568;28;19914;-31
2022/06/11 06:28:15;;;;;;;;;;;;;;;;;;5016121;28;19964;-30
2022/06/11 06:30:41;;;;;;;;;;;;;;;;;;5017445;28;19949;-30
2022/06/11 06:33:07;;;;;;;;;;;;;;;;;;5017000;28;20348;-31
2022/06/11 06:35:33;;;;;;;;;;;;;;;;;;5017210;28;19971;-30
2022/06/11 06:37:59;;;;;;;;;;;;;;;;;;5017396;28;19924;-30
2022/06/11 06:40:25;;;;;;;;;;;;;;;;;;5016675;28;20332;-30
2022/06/11 06:42:51;;;;;;;;;;;;;;;;;;5017216;28;19916;-30
2022/06/11 06:45:17;;;;;;;;;;;;;;;;;;5016832;28;20360;-30
2022/06/11 06:47:43;;;;;;;;;;;;;;;;;;5016572;28;19956;-30
2022/06/11 06:50:09;;;;;;;;;;;;;;;;;;5016542;28;20058;-30
2022/06/11 06:52:35;;;;;;;;;;;;;;;;;;5016840;28;19914;-30
2022/06/11 06:55:01;;;;;;;;;;;;;;;;;;5016581;28;19916;-30
2022/06/11 06:57:27;;;;;;;;;;;;;;;;;;5016724;28;19914;-30
2022/06/11 06:59:53;;;;;;;;;;;;;;;;;;5016388;28;19968;-30
2022/06/11 07:02:19;;;;;;;;;;;;;;;;;;5016552;28;19975;-31
2022/06/11 07:04:45;;;;;;;;;;;;;;;;;;5016218;28;19932;-31
2022/06/11 07:07:11;;;;;;;;;;;;;;;;;;5016656;28;19914;-30
2022/06/11 07:09:37;;;;;;;;;;;;;;;;;;5016361;28;19913;-31
2022/06/11 07:12:03;;;;;;;;;;;;;;;;;;5016428;28;19916;-31
2022/06/11 07:14:29;;;;;;;;;;;;;;;;;;5016172;28;19971;-31
2022/06/11 07:16:55;;;;;;;;;;;;;;;;;;5016216;28;19979;-31
2022/06/11 07:19:21;;;;;;;;;;;;;;;;;;5016031;28;19921;-31
2022/06/11 07:21:47;;;;;;;;;;;;;;;;;;5015904;28;19998;-31
2022/06/11 07:24:13;;;;;;;;;;;;;;;;;;5016011;28;19917;-31
2022/06/11 07:26:39;;;;;;;;;;;;;;;;;;5015873;28;19980;-31
2022/06/11 07:29:05;;;;;;;;;;;;;;;;;;5015794;28;19920;-31
2022/06/11 07:31:31;;;;;;;;;;;;;;;;;;5016062;28;19971;-31
2022/06/11 07:33:57;;;;;;;;;;;;;;;;;;5015567;28;19913;-31
2022/06/11 07:36:23;;;;;;;;;;;;;;;;;;5015701;28;20190;-31
2022/06/11 07:38:49;;;;;;;;;;;;;;;;;;5015857;28;19917;-31
2022/06/11 07:41:15;;;;;;;;;;;;;;;;;;5015558;28;19910;-31
2022/06/11 07:43:41;;;;;;;;;;;;;;;;;;5016525;28;19928;-31
2022/06/11 07:46:07;;;;;;;;;;;;;;;;;;5016099;28;20314;-31
2022/06/11 07:48:33;;;;;;;;;;;;;;;;;;5015624;28;19913;-31
2022/06/11 07:50:59;;;;;;;;;;;;;;;;;;5015846;28;20229;-31
2022/06/11 07:53:25;;;;;;;;;;;;;;;;;;5015448;28;19981;-31
2022/06/11 07:55:51;;;;;;;;;;;;;;;;;;5015812;28;19909;-31
2022/06/11 07:58:17;;;;;;;;;;;;;;;;;;5015311;28;19917;-30
2022/06/11 08:00:43;;;;;;;;;;;;;;;;;;5015466;28;19967;-31
2022/06/11 08:03:09;;;;;;;;;;;;;;;;;;5015106;28;19941;-31
2022/06/11 08:05:36;;;;;;;;;;;;;;;;;;5015397;28;19920;-31
2022/06/11 08:08:02;;;;;;;;;;;;;;;;;;5015400;28;19924;-31
2022/06/11 08:10:28;;;;;;;;;;;;;;;;;;5015325;28;19913;-31
2022/06/11 08:12:54;;;;;;;;;;;;;;;;;;5015194;28;20264;-31
2022/06/11 08:15:20;;;;;;;;;;;;;;;;;;5015066;28;20008;-31
2022/06/11 08:17:46;;;;;;;;;;;;;;;;;;5015385;28;20265;-31
2022/06/11 08:20:12;;;;;;;;;;;;;;;;;;5015121;28;19917;-31
2022/06/11 08:22:38;;;;;;;;;;;;;;;;;;5015613;28;19922;-31
2022/06/11 08:25:04;;;;;;;;;;;;;;;;;;5015129;28;19917;-31
2022/06/11 08:27:30;;;;;;;;;;;;;;;;;;5015331;28;19921;-30
2022/06/11 08:29:56;;;;;;;;;;;;;;;;;;5014969;28;19914;-30
2022/06/11 08:32:22;;;;;;;;;;;;;;;;;;5015483;28;19917;-31
2022/06/11 08:34:47;;;;;;;;;;;;;;;;;;5015052;28;19921;-31
2022/06/11 08:37:13;;;;;;;;;;;;;;;;;;5015023;28;19913;-30
2022/06/11 08:39:39;;;;;;;;;;;;;;;;;;5015142;28;19918;-31
2022/06/11 08:42:07;;;;;;;;;;;;;;;;;;5014894;28;20272;-31
2022/06/11 08:44:33;;;;;;;;;;;;;;;;;;5015240;28;19925;-31
2022/06/11 08:46:59;;;;;;;;;;;;;;;;;;5015209;28;19913;-31
2022/06/11 08:49:25;;;;;;;;;;;;;;;;;;5014951;28;19913;-31
2022/06/11 08:51:51;;;;;;;;;;;;;;;;;;5015626;28;19921;-31
2022/06/11 08:54:17;;;;;;;;;;;;;;;;;;5018722;28;20332;-31
2022/06/11 08:56:43;;;;;;;;;;;;;;;;;;5018818;28;19976;-31
2022/06/11 08:59:09;;;;;;;;;;;;;;;;;;5018880;28;19917;-31
2022/06/11 09:01:35;;;;;;;;;;;;;;;;;;5018736;28;19909;-31
2022/06/11 09:04:01;;;;;;;;;;;;;;;;;;5018385;28;19953;-31
2022/06/11 09:06:27;;;;;;;;;;;;;;;;;;5018613;28;20023;-30
2022/06/11 09:08:53;;;;;;;;;;;;;;;;;;5018550;28;19917;-31
2022/06/11 09:11:19;;;;;;;;;;;;;;;;;;5018838;28;19921;-30
2022/06/11 09:13:45;;;;;;;;;;;;;;;;;;5018382;28;19971;-30
2022/06/11 09:16:11;;;;;;;;;;;;;;;;;;5018680;28;20332;-31
2022/06/11 09:18:37;;;;;;;;;;;;;;;;;;5018274;28;19914;-31
2022/06/11 09:21:03;;;;;;;;;;;;;;;;;;5018318;28;19913;-31
2022/06/11 09:23:30;;;;;;;;;;;;;;;;;;5018273;28;20374;-31
2022/06/11 09:25:56;;;;;;;;;;;;;;;;;;5018123;28;19920;-31
2022/06/11 09:28:22;;;;;;;;;;;;;;;;;;5018140;28;19913;-31
2022/06/11 09:30:49;;;;;;;;;;;;;;;;;;5017965;28;19925;-31
2022/06/11 09:33:15;;;;;;;;;;;;;;;;;;5018309;28;20252;-31
2022/06/11 09:35:41;;;;;;;;;;;;;;;;;;5018560;28;19917;-31
2022/06/11 09:38:07;;;;;;;;;;;;;;;;;;5017947;28;19924;-31
2022/06/11 09:40:33;;;;;;;;;;;;;;;;;;5018417;28;20252;-31
2022/06/11 09:42:59;;;;;;;;;;;;;;;;;;5017730;28;20368;-31
2022/06/11 09:45:25;;;;;;;;;;;;;;;;;;5017751;28;19909;-31
2022/06/11 09:47:51;;;;;;;;;;;;;;;;;;5018079;28;19914;-31
2022/06/11 09:50:18;;;;;;;;;;;;;;;;;;5017593;28;19913;-31
2022/06/11 09:52:44;;;;;;;;;;;;;;;;;;5017854;28;20001;-31
2022/06/11 09:55:10;;;;;;;;;;;;;;;;;;5017640;28;20407;-31
2022/06/11 09:57:36;;;;;;;;;;;;;;;;;;5017888;28;20340;-31
2022/06/11 10:00:02;;;;;;;;;;;;;;;;;;5017452;28;20095;-31
2022/06/11 10:02:30;;;;;;;;;;;;;;;;;;5016903;28;19914;-31
2022/06/11 10:04:57;;;;;;;;;;;;;;;;;;5016294;28;19920;-31
2022/06/11 10:07:24;;;;;;;;;;;;;;;;;;5017470;28;19917;-32
2022/06/11 10:09:50;;;;;;;;;;;;;;;;;;5017571;28;19924;-32
2022/06/11 10:12:16;;;;;;;;;;;;;;;;;;5017235;28;19910;-32
2022/06/11 10:14:42;;;;;;;;;;;;;;;;;;5017204;28;19944;-31
2022/06/11 10:17:08;;;;;;;;;;;;;;;;;;5017112;28;19964;-32
2022/06/11 10:19:34;;;;;;;;;;;;;;;;;;5017605;28;20291;-31
2022/06/11 10:22:00;;;;;;;;;;;;;;;;;;5017030;28;20060;-31
2022/06/11 10:24:26;;;;;;;;;;;;;;;;;;5017802;28;19968;-31
2022/06/11 10:26:52;;;;;;;;;;;;;;;;;;5017243;28;20007;-31
2022/06/11 10:29:18;;;;;;;;;;;;;;;;;;5016981;28;19936;-31
2022/06/11 10:31:44;;;;;;;;;;;;;;;;;;5017162;28;20000;-31
2022/06/11 10:34:10;;;;;;;;;;;;;;;;;;5016718;28;19913;-31
2022/06/11 10:36:36;;;;;;;;;;;;;;;;;;5017323;28;20226;-32
2022/06/11 10:39:02;;;;;;;;;;;;;;;;;;5016639;28;19933;-31
2022/06/11 10:41:28;;;;;;;;;;;;;;;;;;5016763;28;19968;-31
2022/06/11 10:43:54;;;;;;;;;;;;;;;;;;5016674;28;19914;-31
2022/06/11 10:46:20;;;;;;;;;;;;;;;;;;5016635;28;19913;-31
2022/06/11 10:48:47;;;;;;;;;;;;;;;;;;5016554;28;20356;-32
2022/06/11 10:51:13;;;;;;;;;;;;;;;;;;5016641;28;19918;-31
2022/06/11 10:53:39;;;;;;;;;;;;;;;;;;5016622;28;19917;-32
2022/06/11 10:56:05;;;;;;;;;;;;;;;;;;5016679;28;19913;-31
2022/06/11 10:58:31;;;;;;;;;;;;;;;;;;5016426;28;19914;-31
2022/06/11 11:00:57;;;;;;;;;;;;;;;;;;5017325;28;19918;-32
2022/06/11 11:03:23;;;;;;;;;;;;;;;;;;5016096;28;20036;-32
2022/06/11 11:05:49;;;;;;;;;;;;;;;;;;5016969;28;19914;-31
2022/06/11 11:08:16;;;;;;;;;;;;;;;;;;5016391;28;20004;-32
2022/06/11 11:10:42;;;;;;;;;;;;;;;;;;5016447;28;20382;-31
2022/06/11 11:13:08;;;;;;;;;;;;;;;;;;5016597;28;19971;-31
2022/06/11 11:15:34;;;;;;;;;;;;;;;;;;5016449;28;20288;-32
2022/06/11 11:18:00;;;;;;;;;;;;;;;;;;5016329;28;20364;-31
2022/06/11 11:20:29;;;;;;;;;;;;;;;;;;5016176;28;20021;-32
2022/06/11 11:22:55;;;;;;;;;;;;;;;;;;5016131;28;19924;-32
2022/06/11 11:25:21;;;;;;;;;;;;;;;;;;5016412;28;20012;-31
2022/06/11 11:27:47;;;;;;;;;;;;;;;;;;5016441;28;19914;-32
2022/06/11 11:30:13;;;;;;;;;;;;;;;;;;5016066;28;19936;-31
2022/06/11 11:32:39;;;;;;;;;;;;;;;;;;5016535;28;19913;-31
2022/06/11 11:35:05;;;;;;;;;;;;;;;;;;5015991;28;20440;-31
2022/06/11 11:37:31;;;;;;;;;;;;;;;;;;5016193;28;20341;-32
2022/06/11 11:39:57;;;;;;;;;;;;;;;;;;5015897;28;19914;-32
2022/06/11 11:42:23;;;;;;;;;;;;;;;;;;5016096;28;19924;-31
2022/06/11 11:44:50;;;;;;;;;;;;;;;;;;5016670;28;19992;-31
2022/06/11 11:47:16;;;;;;;;;;;;;;;;;;5015763;28;19920;-32
2022/06/11 11:49:42;;;;;;;;;;;;;;;;;;5016057;28;19996;-31
2022/06/11 11:52:08;;;;;;;;;;;;;;;;;;5015695;28;19913;-31
2022/06/11 11:54:34;;;;;;;;;;;;;;;;;;5015720;28;19919;-31
2022/06/11 11:57:00;;;;;;;;;;;;;;;;;;5015682;28;19909;-31
2022/06/11 11:59:26;;;;;;;;;;;;;;;;;;5016060;28;19917;-31
2022/06/11 12:01:52;;;;;;;;;;;;;;;;;;5015788;28;19921;-31
2022/06/11 12:04:19;;;;;;;;;;;;;;;;;;5015400;28;19929;-31
2022/06/11 12:06:45;;;;;;;;;;;;;;;;;;5015492;28;19914;-31
2022/06/11 12:09:11;;;;;;;;;;;;;;;;;;5015565;28;20263;-31
2022/06/11 12:11:37;;;;;;;;;;;;;;;;;;5015439;28;19925;-31
2022/06/11 12:14:03;;;;;;;;;;;;;;;;;;5015389;28;19913;-31
2022/06/11 12:16:29;;;;;;;;;;;;;;;;;;5015382;28;19956;-31
2022/06/11 12:18:55;;;;;;;;;;;;;;;;;;5015306;28;19968;-29
2022/06/11 12:21:21;;;;;;;;;;;;;;;;;;5015247;28;20311;-29
2022/06/11 12:23:47;;;;;;;;;;;;;;;;;;5015130;28;19913;-30
2022/06/11 12:26:13;;;;;;;;;;;;;;;;;;5014511;28;19914;-29
2022/06/11 12:28:39;;;;;;;;;;;;;;;;;;5015372;28;19916;-29
2022/06/11 12:31:05;;;;;;;;;;;;;;;;;;5015705;28;19914;-29
2022/06/11 12:33:31;;;;;;;;;;;;;;;;;;5015030;28;19921;-30
2022/06/11 12:35:57;;;;;;;;;;;;;;;;;;5015447;28;19910;-30
2022/06/11 12:38:23;;;;;;;;;;;;;;;;;;5015124;28;19921;-30
2022/06/11 12:40:49;;;;;;;;;;;;;;;;;;5015336;28;20248;-30
2022/06/11 12:43:15;;;;;;;;;;;;;;;;;;5015136;28;19914;-29
2022/06/11 12:45:41;;;;;;;;;;;;;;;;;;5015060;28;19924;-32
2022/06/11 12:48:07;;;;;;;;;;;;;;;;;;5015243;28;19913;-30
2022/06/11 12:50:33;;;;;;;;;;;;;;;;;;5015041;28;20355;-31
2022/06/11 12:52:59;;;;;;;;;;;;;;;;;;5015236;28;19913;-31
2022/06/11 12:55:25;;;;;;;;;;;;;;;;;;5015298;28;19910;-29
2022/06/11 12:57:51;;;;;;;;;;;;;;;;;;5014959;28;19963;-29
2022/06/11 13:00:17;;;;;;;;;;;;;;;;;;5014855;28;20325;-29
2022/06/11 13:02:43;;;;;;;;;;;;;;;;;;5014663;28;19926;-29
2022/06/11 13:05:09;;;;;;;;;;;;;;;;;;5015581;28;19906;-30
2022/06/11 13:07:35;;;;;;;;;;;;;;;;;;5014825;28;19925;-29
2022/06/11 13:10:02;;;;;;;;;;;;;;;;;;5014853;28;20245;-29
2022/06/11 13:12:28;;;;;;;;;;;;;;;;;;5014776;28;20289;-29
2022/06/11 13:14:54;;;;;;;;;;;;;;;;;;5014819;28;19964;-29
2022/06/11 13:17:20;;;;;;;;;;;;;;;;;;5014793;28;19914;-30
2022/06/11 13:19:46;;;;;;;;;;;;;;;;;;5014678;28;19925;-31
2022/06/11 13:22:12;;;;;;;;;;;;;;;;;;5014632;28;19924;-29
2022/06/11 13:24:38;;;;;;;;;;;;;;;;;;5014959;28;20010;-29
2022/06/11 13:27:04;;;;;;;;;;;;;;;;;;5014544;28;20083;-30
2022/06/11 13:29:31;;;;;;;;;;;;;;;;;;5014657;28;19921;-31
2022/06/11 13:31:57;;;;;;;;;;;;;;;;;;5014539;28;19913;-31
2022/06/11 13:34:23;;;;;;;;;;;;;;;;;;5015214;28;19918;-31
2022/06/11 13:36:52;;;;;;;;;;;;;;;;;;5014600;28;20308;-29
2022/06/11 13:39:18;;;;;;;;;;;;;;;;;;5017553;28;19940;-29
2022/06/11 13:41:43;;;;;;;;;;;;;;;;;;5018513;28;19917;-30
2022/06/11 13:44:10;;;;;;;;;;;;;;;;;;5017856;28;19914;-29
2022/06/11 13:46:37;;;;;;;;;;;;;;;;;;5018508;28;20388;-30
2022/06/11 13:49:04;;;;;;;;;;;;;;;;;;5018169;28;20229;-31
2022/06/11 13:51:30;;;;;;;;;;;;;;;;;;5018217;28;19921;-31
2022/06/11 13:56:40;;;;;;;;;;;;;;;;;;5018119;28;20303;-29
2022/06/11 13:59:06;;;;;;;;;;;;;;;;;;5017652;28;19917;-30
2022/06/11 14:01:32;;;;;;;;;;;;;;;;;;5017852;28;19989;-29
2022/06/11 14:03:58;;;;;;;;;;;;;;;;;;5017558;28;19932;-29
2022/06/11 14:06:24;;;;;;;;;;;;;;;;;;5017882;28;20366;-31
2022/06/11 14:08:51;;;;;;;;;;;;;;;;;;5017852;28;19924;-32
2022/06/11 14:11:17;;;;;;;;;;;;;;;;;;5017577;28;19914;-31
2022/06/11 14:13:43;;;;;;;;;;;;;;;;;;5017626;28;20005;-31
2022/06/11 14:16:09;;;;;;;;;;;;;;;;;;5017430;28;19913;-31
2022/06/11 14:18:36;;;;;;;;;;;;;;;;;;5017275;28;19983;-29
2022/06/11 14:21:02;;;;;;;;;;;;;;;;;;5017215;28;19953;-29
2022/06/11 14:23:28;;;;;;;;;;;;;;;;;;5017029;28;19913;-30
2022/06/11 14:25:54;;;;;;;;;;;;;;;;;;5017264;28;19975;-30
2022/06/11 14:28:22;;;;;;;;;;;;;;;;;;5017130;28;20245;-30
2022/06/11 14:30:48;;;;;;;;;;;;;;;;;;5017035;28;20298;-30
2022/06/11 14:33:14;;;;;;;;;;;;;;;;;;5017346;28;20360;-30
2022/06/11 14:35:40;;;;;;;;;;;;;;;;;;5017924;28;19910;-30
2022/06/11 14:38:06;;;;;;;;;;;;;;;;;;5016956;28;19920;-30
2022/06/11 14:40:32;;;;;;;;;;;;;;;;;;5017112;28;19917;-30
2022/06/11 14:43:00;;;;;;;;;;;;;;;;;;5016965;28;19941;-30
2022/06/11 14:45:26;;;;;;;;;;;;;;;;;;5016997;28;19925;-30
2022/06/11 14:47:52;;;;;;;;;;;;;;;;;;5017161;28;20000;-30
2022/06/11 14:50:18;;;;;;;;;;;;;;;;;;5016339;28;19957;-30
2022/06/11 14:52:44;;;;;;;;;;;;;;;;;;5016791;28;20009;-30
2022/06/11 14:55:10;;;;;;;;;;;;;;;;;;5016762;28;19910;-30
2022/06/11 14:57:36;;;;;;;;;;;;;;;;;;5016673;28;19959;-30
2022/06/11 15:00:02;;;;;;;;;;;;;;;;;;5016488;28;19956;-30
2022/06/11 15:02:28;;;;;;;;;;;;;;;;;;5016591;28;19924;-29
2022/06/11 15:04:55;;;;;;;;;;;;;;;;;;5016854;28;19909;-30
2022/06/11 15:07:20;;;;;;;;;;;;;;;;;;5016440;28;19924;-30
2022/06/11 15:09:47;;;;;;;;;;;;;;;;;;5016455;28;19910;-30
2022/06/11 15:12:12;;;;;;;;;;;;;;;;;;5016582;28;19968;-30
2022/06/11 15:14:38;;;;;;;;;;;;;;;;;;5016817;28;19913;-30
2022/06/11 15:17:04;;;;;;;;;;;;;;;;;;5016853;28;19910;-30
2022/06/11 15:19:30;;;;;;;;;;;;;;;;;;5016195;28;19927;-29
2022/06/11 15:21:58;;;;;;;;;;;;;;;;;;5016104;28;19935;-30
2022/06/11 15:24:24;;;;;;;;;;;;;;;;;;5017016;28;20007;-30
2022/06/11 15:26:50;;;;;;;;;;;;;;;;;;5016501;28;19913;-30
2022/06/11 15:29:16;;;;;;;;;;;;;;;;;;5016434;28;19913;-30
2022/06/11 15:31:42;;;;;;;;;;;;;;;;;;5016117;28;20324;-30
2022/06/11 15:34:08;;;;;;;;;;;;;;;;;;5015966;28;19913;-30
2022/06/11 15:36:34;;;;;;;;;;;;;;;;;;5016035;28;19964;-30
2022/06/11 15:39:00;;;;;;;;;;;;;;;;;;5015830;28;19918;-30
2022/06/11 15:41:26;;;;;;;;;;;;;;;;;;5015932;28;19910;-30
2022/06/11 15:43:52;;;;;;;;;;;;;;;;;;5016021;28;20020;-30
2022/06/11 15:46:18;;;;;;;;;;;;;;;;;;5015782;28;20000;-30
2022/06/11 15:48:44;;;;;;;;;;;;;;;;;;5015686;28;20329;-30
2022/06/11 15:51:10;;;;;;;;;;;;;;;;;;5015804;28;19921;-30
2022/06/11 15:56:21;;;;;;;;;;;;;;;;;;5015814;28;20003;-30
2022/06/11 15:58:46;;;;;;;;;;;;;;;;;;5016120;28;19914;-30
2022/06/11 16:01:12;;;;;;;;;;;;;;;;;;5015813;28;19913;-30
2022/06/11 16:03:47;;;;;;;;;;;;;;;;;;5015312;28;19957;-30
2022/06/11 16:06:13;;;;;;;;;;;;;;;;;;5015834;28;19978;-30
2022/06/11 16:08:39;;;;;;;;;;;;;;;;;;5016058;28;20347;-29
2022/06/11 16:11:05;;;;;;;;;;;;;;;;;;5015354;28;19945;-30
2022/06/11 16:13:31;;;;;;;;;;;;;;;;;;5015176;28;19960;-29
2022/06/11 16:15:57;;;;;;;;;;;;;;;;;;5015384;28;19968;-29
2022/06/11 16:18:23;;;;;;;;;;;;;;;;;;5015311;28;20344;-29
2022/06/11 16:20:49;;;;;;;;;;;;;;;;;;5015293;28;19921;-30
2022/06/11 16:23:15;;;;;;;;;;;;;;;;;;5015776;28;19921;-30
2022/06/11 16:25:41;;;;;;;;;;;;;;;;;;5015252;28;19913;-30
2022/06/11 16:28:07;;;;;;;;;;;;;;;;;;5015268;28;19920;-30
2022/06/11 16:30:33;;;;;;;;;;;;;;;;;;5015236;28;20384;-30
2022/06/11 16:32:59;;;;;;;;;;;;;;;;;;5015417;28;20032;-30
2022/06/11 16:35:25;;;;;;;;;;;;;;;;;;5015626;28;19914;-30
2022/06/11 16:37:51;;;;;;;;;;;;;;;;;;5015137;28;20432;-30
2022/06/11 16:40:17;;;;;;;;;;;;;;;;;;5015330;28;19914;-30
2022/06/11 16:42:47;;;;;;;;;;;;;;;;;;5014966;28;19921;-29
2022/06/11 16:45:13;;;;;;;;;;;;;;;;;;5014082;28;19924;-30